Time;durP1;ratioP1;P1;durP2;ratioP2;P2;SDS_P1;SDS_P2;PMS_P1;PMS_P2;Temp;Humidity;BMP_temperature;BMP_pressure;BME280_temperature;BME280_humidity;BME280_pressure;Samples;Min_cycle;Max_cycle;Signal;HPM_P1;HPM_P2
2022/05/08 00:00:14;;;;;;;;;;;;;;;12.03;70.18;97377.56;30001;982;1882;-58
2022/05/08 00:00:45;;;;;;;;;;;;;;;12.03;70.17;97369.41;30001;982;1877;-59
2022/05/08 00:01:16;;;;;;;;;;;;;;;12.03;70.34;97374.03;30001;983;1868;-59
2022/05/08 00:01:47;;;;;;;;;;;;;;;12.04;70.52;97375.66;30001;983;1855;-58
2022/05/08 00:02:19;;;;;;;;;;;;;;;12.05;70.46;97371.84;30001;983;1881;-59
2022/05/08 00:02:54;;;;;;;;;;;;;;;12.05;70.60;97372.66;30001;983;1877;-59
2022/05/08 00:03:25;;;;;;;;;;;;;;;12.05;70.75;97377.28;30001;983;1881;-60
2022/05/08 00:03:57;;;;;;;;;;;;;;;12.05;70.62;97366.41;30001;983;1877;-59
2022/05/08 00:04:27;;;;;;;;;;;;;;;12.06;70.83;97371.53;30001;983;1881;-58
2022/05/08 00:04:58;;;;;;;;;;;;;;;12.06;70.76;97368.81;30001;983;1877;-58
2022/05/08 00:05:29;;;;;;;;;;;;;;;12.07;70.81;97370.44;30001;983;1882;-58
2022/05/08 00:06:06;;;;;;;;;;;;;;;12.06;70.43;97363.37;30001;982;1877;-59
2022/05/08 00:06:37;;;;;;;;;;;;;;;12.05;70.18;97372.66;30001;982;1882;-60
2022/05/08 00:07:08;;;;;;;;;;;;;;;12.04;70.44;97373.75;30001;982;1864;-59
2022/05/08 00:07:39;;;;;;;;;;;;;;;12.03;70.73;97369.41;30001;982;1770;-59
2022/05/08 00:08:10;;;;;;;;;;;;;;;12.02;70.50;97373.22;30001;982;1864;-58
2022/05/08 00:08:40;;;;;;;;;;;;;;;12.02;70.54;97373.22;30001;983;1872;-60
2022/05/08 00:09:11;;;;;;;;;;;;;;;12.01;70.59;97374.31;30001;983;1877;-59
2022/05/08 00:09:43;;;;;;;;;;;;;;;12.01;70.56;97371.59;30001;983;1881;-59
2022/05/08 00:10:13;;;;;;;;;;;;;;;12.00;70.57;97367.25;30001;983;1877;-59
2022/05/08 00:10:44;;;;;;;;;;;;;;;11.99;70.37;97367.56;30001;983;1881;-59
2022/05/08 00:11:15;;;;;;;;;;;;;;;11.99;70.60;97365.63;30001;983;1877;-59
2022/05/08 00:11:46;;;;;;;;;;;;;;;11.99;70.70;97368.34;30001;983;1881;-59
2022/05/08 00:12:17;;;;;;;;;;;;;;;12.00;70.66;97375.41;30001;983;1877;-59
2022/05/08 00:12:48;;;;;;;;;;;;;;;12.00;71.18;97364.53;30001;983;1882;-59
2022/05/08 00:13:19;;;;;;;;;;;;;;;12.00;70.62;97366.44;30001;983;1864;-59
2022/05/08 00:13:50;;;;;;;;;;;;;;;12.00;70.83;97369.16;30001;984;1873;-59
2022/05/08 00:14:21;;;;;;;;;;;;;;;11.99;70.77;97367.56;30001;982;1877;-59
2022/05/08 00:14:55;;;;;;;;;;;;;;;11.98;70.96;97365.94;30001;982;1882;-59
2022/05/08 00:15:27;;;;;;;;;;;;;;;11.97;70.91;97367.84;30001;982;1878;-61
2022/05/08 00:15:59;;;;;;;;;;;;;;;11.95;71.05;97372.75;30001;982;1882;-59
2022/05/08 00:16:30;;;;;;;;;;;;;;;11.95;70.66;97370.03;30001;983;1877;-60
2022/05/08 00:17:01;;;;;;;;;;;;;;;11.94;71.17;97371.13;30001;983;1881;-59
2022/05/08 00:17:34;;;;;;;;;;;;;;;11.94;70.91;97365.69;30001;983;1877;-59
2022/05/08 00:18:05;;;;;;;;;;;;;;;11.92;70.91;97367.88;30001;983;1868;-59
2022/05/08 00:18:36;;;;;;;;;;;;;;;11.92;70.88;97362.44;30001;983;1868;-58
2022/05/08 00:19:07;;;;;;;;;;;;;;;11.90;71.06;97370.09;30001;983;1881;-59
2022/05/08 00:19:43;;;;;;;;;;;;;;;11.88;71.30;97366.03;30001;983;1877;-59
2022/05/08 00:20:14;;;;;;;;;;;;;;;11.85;71.28;97366.63;30001;983;1882;-60
2022/05/08 00:20:46;;;;;;;;;;;;;;;11.83;71.31;97363.37;30001;983;1877;-59
2022/05/08 00:21:17;;;;;;;;;;;;;;;11.80;71.78;97364.75;30001;982;1882;-59
2022/05/08 00:21:48;;;;;;;;;;;;;;;11.79;71.43;97365.84;30001;982;1877;-59
2022/05/08 00:22:19;;;;;;;;;;;;;;;11.79;71.70;97363.13;30001;982;1869;-58
2022/05/08 00:22:50;;;;;;;;;;;;;;;11.79;72.14;97360.41;30001;982;1869;-59
2022/05/08 00:23:21;;;;;;;;;;;;;;;11.80;72.28;97370.19;30001;982;1882;-59
2022/05/08 00:23:52;;;;;;;;;;;;;;;11.81;72.32;97358.22;30001;983;1877;-59
2022/05/08 00:24:24;;;;;;;;;;;;;;;11.81;72.10;97360.94;30001;983;1881;-60
2022/05/08 00:24:55;;;;;;;;;;;;;;;11.81;72.14;97363.66;30001;983;1877;-59
2022/05/08 00:25:27;;;;;;;;;;;;;;;11.79;72.39;97356.87;30001;983;1881;-58
2022/05/08 00:26:00;;;;;;;;;;;;;;;11.76;72.04;97363.72;30001;983;1877;-61
2022/05/08 00:26:31;;;;;;;;;;;;;;;11.73;73.07;97364.28;30001;983;1881;-59
2022/05/08 00:27:02;;;;;;;;;;;;;;;11.68;73.97;97364.34;30001;983;1877;-58
2022/05/08 00:27:33;;;;;;;;;;;;;;;11.63;73.93;97358.94;30001;983;1868;-59
2022/05/08 00:28:06;;;;;;;;;;;;;;;11.60;73.23;97367.69;30001;983;1868;-59
2022/05/08 00:28:38;;;;;;;;;;;;;;;11.58;73.13;97367.97;30001;983;1882;-59
2022/05/08 00:29:10;;;;;;;;;;;;;;;11.57;73.11;97365.53;30001;982;1877;-59
2022/05/08 00:29:41;;;;;;;;;;;;;;;11.55;73.18;97363.09;30001;982;1882;-59
2022/05/08 00:30:13;;;;;;;;;;;;;;;11.55;72.70;97360.38;30001;982;1877;-60
2022/05/08 00:30:44;;;;;;;;;;;;;;;11.54;73.04;97360.66;30001;978;1894;-59
2022/05/08 00:31:16;;;;;;;;;;;;;;;11.53;73.11;97357.13;30001;983;1877;-59
2022/05/08 00:31:48;;;;;;;;;;;;;;;11.55;73.33;97351.41;30001;983;1881;-59
2022/05/08 00:32:20;;;;;;;;;;;;;;;11.55;73.38;97362.28;30001;983;1877;-59
2022/05/08 00:32:50;;;;;;;;;;;;;;;11.55;73.45;97362.28;30001;983;1868;-59
2022/05/08 00:33:21;;;;;;;;;;;;;;;11.54;73.49;97366.09;30001;983;1855;-59
2022/05/08 00:33:53;;;;;;;;;;;;;;;11.55;73.47;97362.28;30001;983;1881;-63
2022/05/08 00:34:24;;;;;;;;;;;;;;;11.54;73.32;97360.66;30001;983;1877;-59
2022/05/08 00:34:55;;;;;;;;;;;;;;;11.52;73.36;97366.38;30001;983;1882;-58
2022/05/08 00:35:26;;;;;;;;;;;;;;;11.52;73.57;97360.94;30001;982;1877;-59
2022/05/08 00:35:58;;;;;;;;;;;;;;;11.51;73.70;97361.25;30001;982;1881;-58
2022/05/08 00:36:28;;;;;;;;;;;;;;;11.49;73.76;97358.81;30001;982;1877;-60
2022/05/08 00:36:59;;;;;;;;;;;;;;;11.50;73.58;97367.78;30001;982;1882;-58
2022/05/08 00:37:30;;;;;;;;;;;;;;;11.49;73.21;97363.44;30001;982;1878;-60
2022/05/08 00:38:03;;;;;;;;;;;;;;;11.49;73.54;97363.44;30001;982;1869;-60
2022/05/08 00:38:34;;;;;;;;;;;;;;;11.48;73.11;97359.09;30001;982;1869;-59
2022/05/08 00:39:05;;;;;;;;;;;;;;;11.48;73.47;97361.81;30001;983;1881;-59
2022/05/08 00:39:39;;;;;;;;;;;;;;;11.48;73.28;97365.34;30001;983;1863;-59
2022/05/08 00:40:15;;;;;;;;;;;;;;;11.50;73.84;97356.91;30001;983;1872;-59
2022/05/08 00:40:46;;;;;;;;;;;;;;;11.51;73.79;97362.06;30001;983;1877;-59
2022/05/08 00:41:17;;;;;;;;;;;;;;;11.52;73.93;97362.84;30001;983;1881;-59
2022/05/08 00:41:51;;;;;;;;;;;;;;;11.53;73.89;97365.28;30002;814;1013;-59
2022/05/08 00:42:22;;;;;;;;;;;;;;;11.53;73.56;97367.19;30001;983;1882;-59
2022/05/08 00:42:58;;;;;;;;;;;;;;;11.53;73.82;97361.75;30001;961;1899;-59
2022/05/08 00:43:33;;;;;;;;;;;;;;;11.54;74.10;97360.66;30001;982;1869;-59
2022/05/08 00:44:04;;;;;;;;;;;;;;;11.54;74.08;97361.47;30001;982;1869;-60
2022/05/08 00:44:35;;;;;;;;;;;;;;;11.54;74.00;97360.66;30001;982;1882;-60
2022/05/08 00:45:06;;;;;;;;;;;;;;;11.55;73.85;97363.09;30001;977;1882;-60
2022/05/08 00:45:40;;;;;;;;;;;;;;;11.55;74.00;97351.41;30001;982;1882;-59
2022/05/08 00:46:12;;;;;;;;;;;;;;;11.55;73.96;97357.66;30001;972;1902;-60
2022/05/08 00:46:43;;;;;;;;;;;;;;;11.55;74.14;97359.56;30001;983;1881;-59
2022/05/08 00:47:15;;;;;;;;;;;;;;;11.55;73.76;97357.66;30001;983;1877;-60
2022/05/08 00:47:46;;;;;;;;;;;;;;;11.54;73.86;97358.75;30001;983;1881;-61
2022/05/08 00:48:17;;;;;;;;;;;;;;;11.54;73.80;97360.66;30001;983;1877;-60
2022/05/08 00:48:48;;;;;;;;;;;;;;;11.54;73.81;97360.66;30001;983;1868;-60
2022/05/08 00:49:19;;;;;;;;;;;;;;;11.53;73.57;97365.28;30001;983;1868;-59
2022/05/08 00:49:50;;;;;;;;;;;;;;;11.52;74.04;97362.84;30001;983;1881;-59
2022/05/08 00:50:21;;;;;;;;;;;;;;;11.52;73.58;97365.56;30001;983;1877;-59
2022/05/08 00:50:52;;;;;;;;;;;;;;;11.52;73.82;97362.84;30001;986;1882;-58
2022/05/08 00:51:24;;;;;;;;;;;;;;;11.52;73.58;97368.28;30001;982;1877;-58
2022/05/08 00:51:55;;;;;;;;;;;;;;;11.50;73.67;97374.00;30001;982;1882;-59
2022/05/08 00:52:30;;;;;;;;;;;;;;;11.49;73.70;97369.69;30001;982;1878;-59
2022/05/08 00:53:01;;;;;;;;;;;;;;;11.49;73.92;97369.69;30001;982;1882;-59
2022/05/08 00:53:36;;;;;;;;;;;;;;;11.49;73.95;97368.88;30001;982;1865;-59
2022/05/08 00:54:08;;;;;;;;;;;;;;;11.49;73.97;97374.31;30001;983;1872;-62
2022/05/08 00:54:39;;;;;;;;;;;;;;;11.49;73.77;97371.59;30001;983;1877;-59
2022/05/08 00:55:10;;;;;;;;;;;;;;;11.50;73.80;97367.78;30001;983;1881;-58
2022/05/08 00:55:41;;;;;;;;;;;;;;;11.49;73.94;97368.88;30001;983;1877;-59
2022/05/08 00:56:13;;;;;;;;;;;;;;;11.49;73.94;97368.88;30001;983;1881;-59
2022/05/08 00:56:45;;;;;;;;;;;;;;;11.49;73.59;97374.31;30001;983;1877;-59
2022/05/08 00:57:18;;;;;;;;;;;;;;;11.48;73.69;97372.69;30001;983;1868;-59
2022/05/08 00:57:50;;;;;;;;;;;;;;;11.47;73.83;97374.59;30001;983;1868;-59
2022/05/08 00:58:21;;;;;;;;;;;;;;;11.47;73.84;97376.50;30001;982;1882;-60
2022/05/08 00:58:53;;;;;;;;;;;;;;;11.46;73.62;97369.44;30001;982;1877;-61
2022/05/08 00:59:25;;;;;;;;;;;;;;;11.47;73.77;97377.31;30001;982;1882;-59
2022/05/08 01:00:03;;;;;;;;;;;;;;;11.47;74.12;97379.22;30001;982;1878;-59
2022/05/08 01:00:34;;;;;;;;;;;;;;;11.46;74.10;97375.69;30001;982;1882;-60
2022/05/08 01:01:06;;;;;;;;;;;;;;;11.43;73.97;97379.00;30001;982;1877;-60
2022/05/08 01:01:37;;;;;;;;;;;;;;;11.41;75.25;97373.84;30001;983;1881;-60
2022/05/08 01:02:08;;;;;;;;;;;;;;;11.35;75.79;97369.56;30001;983;1863;-59
2022/05/08 01:02:39;;;;;;;;;;;;;;;11.30;76.55;97377.75;30001;983;1873;-60
2022/05/08 01:03:13;;;;;;;;;;;;;;;11.23;76.48;97374.53;30001;983;1877;-60
2022/05/08 01:03:45;;;;;;;;;;;;;;;11.20;76.72;97372.41;30001;983;1881;-59
2022/05/08 01:04:16;;;;;;;;;;;;;;;11.18;76.54;97368.34;30001;983;1864;-60
2022/05/08 01:04:47;;;;;;;;;;;;;;;11.16;76.75;97371.34;30001;983;1873;-60
2022/05/08 01:05:19;;;;;;;;;;;;;;;11.14;76.59;97373.53;30001;983;1877;-59
2022/05/08 01:05:52;;;;;;;;;;;;;;;11.12;76.16;97370.28;30001;982;1881;-59
2022/05/08 01:06:23;;;;;;;;;;;;;;;11.12;76.00;97369.47;30001;982;1864;-59
2022/05/08 01:06:54;;;;;;;;;;;;;;;11.13;75.83;97371.91;30001;982;1873;-58
2022/05/08 01:07:26;;;;;;;;;;;;;;;11.13;75.74;97365.66;30001;982;1878;-59
2022/05/08 01:07:57;;;;;;;;;;;;;;;11.14;75.59;97367.28;30001;982;1882;-60
2022/05/08 01:08:28;;;;;;;;;;;;;;;11.13;75.91;97377.34;30001;983;1877;-60
2022/05/08 01:08:59;;;;;;;;;;;;;;;11.13;75.98;97366.47;30001;983;1881;-58
2022/05/08 01:09:30;;;;;;;;;;;;;;;11.12;75.67;97370.28;30001;983;1877;-59
2022/05/08 01:10:01;;;;;;;;;;;;;;;11.13;75.47;97371.91;30001;983;1881;-59
2022/05/08 01:10:32;;;;;;;;;;;;;;;11.07;77.29;97368.44;30001;983;1877;-59
2022/05/08 01:11:05;;;;;;;;;;;;;;;11.00;77.56;97356.28;30001;983;1868;-59
2022/05/08 01:11:38;;;;;;;;;;;;;;;10.90;78.23;97369.94;30001;983;1868;-58
2022/05/08 01:12:09;;;;;;;;;;;;;;;10.86;78.57;97371.59;30001;983;1882;-60
2022/05/08 01:12:44;;;;;;;;;;;;;;;10.84;78.31;97374.59;30001;983;1877;-59
2022/05/08 01:13:15;;;;;;;;;;;;;;;10.83;77.41;97372.16;30001;982;1882;-59
2022/05/08 01:13:46;;;;;;;;;;;;;;;10.84;77.34;97380.00;30001;982;1877;-59
2022/05/08 01:14:17;;;;;;;;;;;;;;;10.86;77.22;97374.31;30001;982;1882;-60
2022/05/08 01:15:08;;;;;;;;;;;;;;;10.87;77.10;97370.50;30001;982;1877;-59
2022/05/08 01:15:46;;;;;;;;;;;;;;;10.88;76.91;97374.84;30001;983;1864;-59
2022/05/08 01:16:18;;;;;;;;;;;;;;;10.87;76.57;97367.78;30001;983;1761;-59
2022/05/08 01:16:52;;;;;;;;;;;;;;;10.86;76.55;97371.59;30001;983;1881;-58
2022/05/08 01:17:25;;;;;;;;;;;;;;;10.82;77.85;97365.91;30001;983;1864;-59
2022/05/08 01:17:59;;;;;;;;;;;;;;;10.78;78.45;97378.41;30001;983;1872;-60
2022/05/08 01:18:33;;;;;;;;;;;;;;;10.75;78.43;97378.97;30001;983;1877;-59
2022/05/08 01:19:04;;;;;;;;;;;;;;;10.72;78.66;97382.28;30001;983;1868;-58
2022/05/08 01:19:34;;;;;;;;;;;;;;;10.71;77.76;97376.03;30001;983;1869;-59
2022/05/08 01:20:06;;;;;;;;;;;;;;;10.70;77.62;97379.84;30001;983;1881;-59
2022/05/08 01:20:37;;;;;;;;;;;;;;;10.71;77.57;97376.03;30001;983;1877;-59
2022/05/08 01:21:09;;;;;;;;;;;;;;;10.71;77.48;97380.66;30001;982;1882;-60
2022/05/08 01:21:41;;;;;;;;;;;;;;;10.71;77.39;97373.34;30001;982;1878;-60
2022/05/08 01:22:13;;;;;;;;;;;;;;;10.70;77.49;97382.56;30001;982;1882;-60
2022/05/08 01:22:44;;;;;;;;;;;;;;;10.69;77.14;97378.22;30001;982;1864;-59
2022/05/08 01:23:18;;;;;;;;;;;;;;;10.69;77.20;97374.72;30001;983;1786;-59
2022/05/08 01:23:49;;;;;;;;;;;;;;;10.69;77.28;97370.09;30001;983;1876;-59
2022/05/08 01:24:22;;;;;;;;;;;;;;;10.66;77.29;97367.94;30001;983;1881;-59
2022/05/08 01:24:53;;;;;;;;;;;;;;;10.66;77.09;97375.25;30001;983;1864;-60
2022/05/08 01:25:24;;;;;;;;;;;;;;;10.64;77.45;97375.53;30001;983;1872;-60
2022/05/08 01:25:56;;;;;;;;;;;;;;;10.66;77.46;97377.97;30001;983;1877;-59
2022/05/08 01:26:26;;;;;;;;;;;;;;;10.65;77.35;97369.03;30001;983;1881;-59
2022/05/08 01:26:57;;;;;;;;;;;;;;;10.65;77.34;97370.94;30001;983;1864;-59
2022/05/08 01:27:29;;;;;;;;;;;;;;;10.65;77.53;97365.50;30001;983;1873;-59
2022/05/08 01:28:02;;;;;;;;;;;;;;;10.63;77.40;97368.50;30001;983;1877;-59
2022/05/08 01:28:34;;;;;;;;;;;;;;;10.60;77.36;97363.63;30001;982;1882;-58
2022/05/08 01:29:04;;;;;;;;;;;;;;;10.61;77.42;97367.97;30001;986;1868;-60
2022/05/08 01:29:38;;;;;;;;;;;;;;;10.61;77.19;97365.25;30001;986;1882;-60
2022/05/08 01:30:10;;;;;;;;;;;;;;;10.61;77.38;97365.25;30001;982;1878;-59
2022/05/08 01:30:42;;;;;;;;;;;;;;;10.61;77.40;97359.00;30001;982;1882;-59
2022/05/08 01:31:12;;;;;;;;;;;;;;;10.61;77.53;97364.44;30001;983;1877;-60
2022/05/08 01:31:47;;;;;;;;;;;;;;;10.59;78.03;97362.00;30001;983;1881;-60
2022/05/08 01:32:19;;;;;;;;;;;;;;;10.59;78.31;97361.19;30001;983;1863;-59
2022/05/08 01:32:50;;;;;;;;;;;;;;;10.57;77.75;97361.47;30001;983;1873;-59
2022/05/08 01:33:22;;;;;;;;;;;;;;;10.57;78.07;97363.37;30001;983;1864;-59
2022/05/08 01:33:53;;;;;;;;;;;;;;;10.53;77.67;97357.69;30001;983;1873;-61
2022/05/08 01:34:24;;;;;;;;;;;;;;;10.53;77.94;97357.69;30001;983;1877;-59
2022/05/08 01:34:55;;;;;;;;;;;;;;;10.53;77.73;97360.41;30001;983;1881;-59
2022/05/08 01:35:27;;;;;;;;;;;;;;;10.53;78.08;97360.41;30001;983;1877;-59
2022/05/08 01:35:58;;;;;;;;;;;;;;;10.51;77.90;97359.88;30001;986;1872;-59
2022/05/08 01:36:29;;;;;;;;;;;;;;;10.52;77.88;97355.25;30001;982;1868;-58
2022/05/08 01:37:00;;;;;;;;;;;;;;;10.51;77.99;97357.16;30001;982;1869;-59
2022/05/08 01:37:31;;;;;;;;;;;;;;;10.51;78.26;97354.44;30001;982;1882;-61
2022/05/08 01:38:05;;;;;;;;;;;;;;;10.51;77.76;97354.44;30001;982;1878;-59
2022/05/08 01:38:40;;;;;;;;;;;;;;;10.52;77.99;97358.78;30001;983;1868;-61
2022/05/08 01:39:11;;;;;;;;;;;;;;;10.53;78.14;97357.69;30001;983;1868;-59
2022/05/08 01:39:41;;;;;;;;;;;;;;;10.55;78.35;97352.00;30001;983;1881;-59
2022/05/08 01:40:12;;;;;;;;;;;;;;;10.54;77.93;97359.31;30001;983;1877;-59
2022/05/08 01:40:44;;;;;;;;;;;;;;;10.55;78.04;97355.50;30001;983;1881;-59
2022/05/08 01:41:15;;;;;;;;;;;;;;;10.55;77.93;97358.22;30001;983;1877;-59
2022/05/08 01:41:46;;;;;;;;;;;;;;;10.55;77.69;97360.94;30001;983;1882;-60
2022/05/08 01:42:16;;;;;;;;;;;;;;;10.54;77.69;97353.09;30001;983;1877;-59
2022/05/08 01:42:47;;;;;;;;;;;;;;;10.54;77.66;97353.91;30001;982;1882;-59
2022/05/08 01:43:18;;;;;;;;;;;;;;;10.55;77.96;97357.41;30001;982;1877;-59
2022/05/08 01:43:49;;;;;;;;;;;;;;;10.54;78.00;97353.91;30001;982;1869;-59
2022/05/08 01:44:23;;;;;;;;;;;;;;;10.55;77.73;97358.22;30001;982;1869;-60
2022/05/08 01:44:54;;;;;;;;;;;;;;;10.55;77.87;97349.28;30001;982;1882;-59
2022/05/08 01:45:26;;;;;;;;;;;;;;;10.54;77.57;97353.91;30001;982;1877;-60
2022/05/08 01:45:57;;;;;;;;;;;;;;;10.55;77.88;97357.41;30001;983;1881;-59
2022/05/08 01:46:27;;;;;;;;;;;;;;;10.56;77.56;97362.56;30001;983;1877;-59
2022/05/08 01:48:36;;;;;;;;;;;;;;;10.64;77.62;97359.25;30001;983;1881;-59
2022/05/08 01:49:09;;;;;;;;;;;;;;;10.69;77.37;97358.41;30001;983;1864;-59
2022/05/08 01:49:40;;;;;;;;;;;;;;;10.72;77.35;97366.81;30001;983;1873;-59
2022/05/08 01:50:11;;;;;;;;;;;;;;;10.77;77.28;97367.84;30001;982;1877;-58
2022/05/08 01:50:42;;;;;;;;;;;;;;;10.79;77.13;97363.75;30001;982;1882;-60
2022/05/08 01:51:12;;;;;;;;;;;;;;;10.83;76.64;97355.87;30001;982;1877;-59
2022/05/08 01:51:45;;;;;;;;;;;;;;;10.85;76.67;97359.09;30001;982;1869;-59
2022/05/08 01:52:15;;;;;;;;;;;;;;;10.87;76.62;97356.91;30001;982;1869;-59
2022/05/08 01:52:46;;;;;;;;;;;;;;;10.87;76.61;97359.62;30001;982;1882;-59
2022/05/08 01:53:18;;;;;;;;;;;;;;;10.87;76.79;97367.78;30001;982;1878;-59
2022/05/08 01:53:50;;;;;;;;;;;;;;;10.88;76.49;97363.97;30001;983;1881;-59
2022/05/08 01:54:22;;;;;;;;;;;;;;;10.88;76.42;97358.53;30001;983;1877;-59
2022/05/08 01:54:54;;;;;;;;;;;;;;;10.87;76.31;97357.72;30001;983;1868;-59
2022/05/08 01:55:28;;;;;;;;;;;;;;;10.87;76.36;97356.91;30001;983;1855;-59
2022/05/08 01:56:02;;;;;;;;;;;;;;;10.86;76.51;97355.28;30001;983;1881;-59
2022/05/08 01:56:33;;;;;;;;;;;;;;;10.83;77.02;97361.28;30001;983;1877;-59
2022/05/08 01:57:04;;;;;;;;;;;;;;;10.82;76.70;97351.53;30001;983;1882;-59
2022/05/08 01:57:35;;;;;;;;;;;;;;;10.79;76.98;97360.22;30001;982;1877;-59
2022/05/08 01:58:06;;;;;;;;;;;;;;;10.77;77.78;97359.69;30001;982;1881;-59
2022/05/08 01:58:38;;;;;;;;;;;;;;;10.73;77.97;97360.28;30001;982;1877;-60
2022/05/08 01:59:11;;;;;;;;;;;;;;;10.71;78.47;97358.94;30001;982;1869;-59
2022/05/08 01:59:42;;;;;;;;;;;;;;;10.68;79.31;97365.75;30001;982;1869;-59
2022/05/08 02:00:14;;;;;;;;;;;;;;;10.65;78.76;97366.31;30001;982;1882;-58
2022/05/08 02:00:46;;;;;;;;;;;;;;;10.64;78.90;97359.25;30001;982;1878;-59
2022/05/08 02:01:16;;;;;;;;;;;;;;;10.61;78.53;97359.81;30001;983;1881;-60
2022/05/08 02:01:48;;;;;;;;;;;;;;;10.60;79.01;97358.19;30001;983;1863;-62
2022/05/08 02:02:22;;;;;;;;;;;;;;;10.59;79.26;97355.78;30001;983;1872;-58
2022/05/08 02:02:57;;;;;;;;;;;;;;;10.58;78.83;97360.38;30001;983;1877;-59
2022/05/08 02:03:28;;;;;;;;;;;;;;;10.57;79.55;97358.75;30001;983;1881;-59
2022/05/08 02:03:59;;;;;;;;;;;;;;;10.56;79.54;97351.72;30001;983;1877;-59
2022/05/08 02:04:30;;;;;;;;;;;;;;;10.54;79.16;97356.59;30001;983;1882;-59
2022/05/08 02:05:02;;;;;;;;;;;;;;;10.53;79.01;97351.47;30001;983;1877;-58
2022/05/08 02:05:39;;;;;;;;;;;;;;;10.52;78.67;97357.97;30001;971;1889;-59
2022/05/08 02:06:09;;;;;;;;;;;;;;;10.52;78.48;97366.94;30001;982;1869;-60
2022/05/08 02:06:40;;;;;;;;;;;;;;;10.53;78.46;97360.41;30001;982;1882;-59
2022/05/08 02:07:11;;;;;;;;;;;;;;;10.54;78.75;97358.50;30001;982;1877;-59
2022/05/08 02:07:43;;;;;;;;;;;;;;;10.54;78.80;97358.50;30001;982;1882;-58
2022/05/08 02:08:15;;;;;;;;;;;;;;;10.55;78.63;97354.69;30001;982;1878;-58
2022/05/08 02:08:45;;;;;;;;;;;;;;;10.55;78.43;97360.12;30001;983;1881;-59
2022/05/08 02:09:18;;;;;;;;;;;;;;;10.55;78.76;97363.66;30001;983;1864;-59
2022/05/08 02:09:49;;;;;;;;;;;;;;;10.55;78.16;97363.66;30001;983;1872;-59
2022/05/08 02:10:20;;;;;;;;;;;;;;;10.56;78.26;97362.56;30001;983;1877;-59
2022/05/08 02:10:50;;;;;;;;;;;;;;;10.59;78.76;97358.47;30001;983;1881;-59
2022/05/08 02:11:23;;;;;;;;;;;;;;;10.58;78.43;97359.56;30001;983;1877;-59
2022/05/08 02:11:54;;;;;;;;;;;;;;;10.60;78.52;97360.91;30001;983;1882;-58
2022/05/08 02:12:25;;;;;;;;;;;;;;;10.62;78.43;97361.44;30001;983;1877;-59
2022/05/08 02:12:56;;;;;;;;;;;;;;;10.64;78.48;97353.84;30001;982;1882;-58
2022/05/08 02:13:27;;;;;;;;;;;;;;;10.67;78.25;97364.13;30001;982;1877;-58
2022/05/08 02:13:58;;;;;;;;;;;;;;;10.68;78.37;97365.75;30001;982;1882;-60
2022/05/08 02:14:29;;;;;;;;;;;;;;;10.69;78.66;97353.00;30001;982;1865;-59
2022/05/08 02:15:00;;;;;;;;;;;;;;;10.70;78.28;97358.13;30001;982;1873;-59
2022/05/08 02:15:32;;;;;;;;;;;;;;;10.71;78.10;97357.06;30001;972;1785;-59
2022/05/08 02:16:03;;;;;;;;;;;;;;;10.72;78.20;97361.38;30001;983;1881;-58
2022/05/08 02:16:34;;;;;;;;;;;;;;;10.71;77.97;97354.34;30001;983;1877;-60
2022/05/08 02:17:05;;;;;;;;;;;;;;;10.70;78.06;97358.13;30001;983;1881;-59
2022/05/08 02:17:37;;;;;;;;;;;;;;;10.72;78.06;97360.56;30001;983;1877;-59
2022/05/08 02:18:11;;;;;;;;;;;;;;;10.70;77.68;97360.03;30001;983;1868;-63
2022/05/08 02:18:42;;;;;;;;;;;;;;;10.71;78.00;97354.34;30001;983;1868;-58
2022/05/08 02:19:13;;;;;;;;;;;;;;;10.71;78.03;97353.53;30001;983;1882;-59
2022/05/08 02:19:44;;;;;;;;;;;;;;;10.70;77.92;97358.13;30001;983;1877;-59
2022/05/08 02:20:14;;;;;;;;;;;;;;;10.71;77.87;97354.34;30001;982;1882;-58
2022/05/08 02:20:45;;;;;;;;;;;;;;;10.70;78.05;97350.00;30001;982;1864;-58
2022/05/08 02:21:16;;;;;;;;;;;;;;;10.70;78.05;97355.44;30001;982;1873;-59
2022/05/08 02:21:47;;;;;;;;;;;;;;;10.72;77.93;97355.97;30001;982;1877;-60
2022/05/08 02:22:18;;;;;;;;;;;;;;;10.75;77.72;97359.97;30001;982;1882;-58
2022/05/08 02:22:50;;;;;;;;;;;;;;;10.77;78.09;97357.00;30001;983;1876;-59
2022/05/08 02:23:21;;;;;;;;;;;;;;;10.79;78.03;97349.37;30001;977;1893;-60
2022/05/08 02:23:52;;;;;;;;;;;;;;;10.81;78.12;97358.84;30001;983;1877;-58
2022/05/08 02:24:26;;;;;;;;;;;;;;;10.83;78.07;97350.44;30001;983;1881;-59
2022/05/08 02:24:57;;;;;;;;;;;;;;;10.83;77.78;97345.81;30001;983;1864;-58
2022/05/08 02:25:27;;;;;;;;;;;;;;;10.84;77.69;97352.88;30001;983;1872;-59
2022/05/08 02:25:58;;;;;;;;;;;;;;;10.84;77.75;97352.88;30001;983;1877;-59
2022/05/08 02:26:29;;;;;;;;;;;;;;;10.85;77.77;97346.34;30001;970;1902;-63
2022/05/08 02:27:03;;;;;;;;;;;;;;;10.86;77.62;97349.88;30001;983;1868;-59
2022/05/08 02:27:35;;;;;;;;;;;;;;;10.86;77.71;97347.97;30001;983;1864;-58
2022/05/08 02:28:06;;;;;;;;;;;;;;;10.87;77.57;97351.50;30001;982;1882;-59
2022/05/08 02:28:37;;;;;;;;;;;;;;;10.87;77.55;97349.59;30001;982;1886;-59
2022/05/08 02:29:10;;;;;;;;;;;;;;;10.88;77.57;97353.12;30001;982;1882;-58
2022/05/08 02:29:41;;;;;;;;;;;;;;;10.91;77.35;97352.53;30001;982;1886;-57
2022/05/08 02:30:12;;;;;;;;;;;;;;;10.91;77.58;97352.53;30001;982;1882;-59
2022/05/08 02:30:43;;;;;;;;;;;;;;;10.91;77.51;97352.53;30001;983;1885;-58
2022/05/08 02:31:14;;;;;;;;;;;;;;;10.90;77.53;97356.34;30001;983;1881;-59
2022/05/08 02:31:45;;;;;;;;;;;;;;;10.89;77.53;97349.31;30001;983;1885;-58
2022/05/08 02:32:16;;;;;;;;;;;;;;;10.89;77.62;97354.72;30001;983;1868;-59
2022/05/08 02:32:48;;;;;;;;;;;;;;;10.88;77.71;97348.50;30001;983;1877;-60
2022/05/08 02:33:19;;;;;;;;;;;;;;;10.88;77.52;97348.50;30001;983;1881;-59
2022/05/08 02:33:50;;;;;;;;;;;;;;;10.88;77.91;97351.22;30001;983;1886;-58
2022/05/08 02:34:20;;;;;;;;;;;;;;;10.88;77.28;97353.91;30001;983;1881;-59
2022/05/08 02:34:51;;;;;;;;;;;;;;;10.88;77.66;97350.41;30001;983;1886;-59
2022/05/08 02:35:25;;;;;;;;;;;;;;;10.87;77.37;97351.50;30001;982;1882;-59
2022/05/08 02:35:56;;;;;;;;;;;;;;;10.86;77.68;97349.88;30001;982;1886;-60
2022/05/08 02:36:30;;;;;;;;;;;;;;;10.84;77.66;97352.06;30001;982;1882;-58
2022/05/08 02:37:00;;;;;;;;;;;;;;;10.84;78.08;97352.88;30001;982;1886;-58
2022/05/08 02:37:33;;;;;;;;;;;;;;;10.84;78.04;97349.34;30001;982;1869;-59
2022/05/08 02:38:04;;;;;;;;;;;;;;;10.83;77.92;97350.44;30001;983;1877;-60
2022/05/08 02:38:38;;;;;;;;;;;;;;;10.83;77.77;97350.44;30001;983;1881;-59
2022/05/08 02:39:09;;;;;;;;;;;;;;;10.82;78.13;97349.63;30001;983;1886;-59
2022/05/08 02:39:40;;;;;;;;;;;;;;;10.81;77.90;97347.19;30001;983;1881;-59
2022/05/08 02:40:11;;;;;;;;;;;;;;;10.83;78.05;97355.87;30001;983;1885;-58
2022/05/08 02:40:42;;;;;;;;;;;;;;;10.83;78.14;97348.53;30001;983;1881;-58
2022/05/08 02:41:13;;;;;;;;;;;;;;;10.84;78.08;97349.34;30001;983;1886;-59
2022/05/08 02:41:44;;;;;;;;;;;;;;;10.84;77.97;97352.06;30001;983;1881;-59
2022/05/08 02:42:15;;;;;;;;;;;;;;;10.85;78.08;97353.69;30001;983;1886;-59
2022/05/08 02:42:46;;;;;;;;;;;;;;;10.84;78.35;97344.72;30001;983;1868;-58
2022/05/08 02:43:21;;;;;;;;;;;;;;;10.85;77.84;97354.50;30001;982;1864;-59
2022/05/08 02:43:52;;;;;;;;;;;;;;;10.84;78.08;97352.06;30001;982;1882;-58
2022/05/08 02:44:23;;;;;;;;;;;;;;;10.84;77.92;97352.06;30001;982;1886;-59
2022/05/08 02:44:54;;;;;;;;;;;;;;;10.84;78.09;97350.16;30001;982;1882;-58
2022/05/08 02:45:26;;;;;;;;;;;;;;;10.85;78.09;97350.97;30001;983;1885;-58
2022/05/08 02:45:59;;;;;;;;;;;;;;;10.86;77.90;97350.69;30001;983;1881;-58
2022/05/08 02:46:30;;;;;;;;;;;;;;;10.87;78.14;97346.88;30001;983;1885;-59
2022/05/08 02:47:01;;;;;;;;;;;;;;;10.86;77.94;97350.69;30001;983;1881;-58
2022/05/08 02:47:33;;;;;;;;;;;;;;;10.86;77.93;97347.16;30001;983;1872;-57
2022/05/08 02:48:04;;;;;;;;;;;;;;;10.86;78.33;97349.88;30001;983;1873;-60
2022/05/08 02:48:35;;;;;;;;;;;;;;;10.87;77.92;97351.50;30001;983;1873;-58
2022/05/08 02:49:06;;;;;;;;;;;;;;;10.85;78.11;97349.06;30001;983;1860;-58
2022/05/08 02:49:37;;;;;;;;;;;;;;;10.87;77.99;97346.06;30001;982;1886;-58
2022/05/08 02:50:11;;;;;;;;;;;;;;;10.86;78.18;97345.25;30001;982;1882;-58
2022/05/08 02:50:44;;;;;;;;;;;;;;;10.87;78.08;97351.50;30001;982;1873;-59
2022/05/08 02:51:15;;;;;;;;;;;;;;;10.85;78.18;97342.81;30001;982;1873;-59